地図

経路データ

SID SEASON NUMBER BASIN SUBBASIN NAME ISO_TIME NATURE LAT LON WMO_WIND WMO_PRES WMO_AGENCY TRACK_TYPE DIST2LAND LANDFALL IFLAG USA_AGENCY USA_ATCF_ID USA_LAT USA_LON USA_RECORD USA_STATUS USA_WIND USA_PRES USA_SSHS USA_R34_NE USA_R34_SE USA_R34_SW USA_R34_NW USA_R50_NE USA_R50_SE USA_R50_SW USA_R50_NW USA_R64_NE USA_R64_SE USA_R64_SW USA_R64_NW USA_POCI USA_ROCI USA_RMW USA_EYE TOKYO_LAT TOKYO_LON TOKYO_GRADE TOKYO_WIND TOKYO_PRES TOKYO_R50_DIR TOKYO_R50_LONG TOKYO_R50_SHORT TOKYO_R30_DIR TOKYO_R30_LONG TOKYO_R30_SHORT TOKYO_LAND CMA_LAT CMA_LON CMA_CAT CMA_WIND CMA_PRES HKO_LAT HKO_LON HKO_CAT HKO_WIND HKO_PRES NEWDELHI_LAT NEWDELHI_LON NEWDELHI_GRADE NEWDELHI_WIND NEWDELHI_PRES NEWDELHI_CI NEWDELHI_DP NEWDELHI_POCI REUNION_LAT REUNION_LON REUNION_TYPE REUNION_WIND REUNION_PRES REUNION_TNUM REUNION_CI REUNION_RMW REUNION_R34_NE REUNION_R34_SE REUNION_R34_SW REUNION_R34_NW REUNION_R50_NE REUNION_R50_SE REUNION_R50_SW REUNION_R50_NW REUNION_R64_NE REUNION_R64_SE REUNION_R64_SW REUNION_R64_NW BOM_LAT BOM_LON BOM_TYPE BOM_WIND BOM_PRES BOM_TNUM BOM_CI BOM_RMW BOM_R34_NE BOM_R34_SE BOM_R34_SW BOM_R34_NW BOM_R50_NE BOM_R50_SE BOM_R50_SW BOM_R50_NW BOM_R64_NE BOM_R64_SE BOM_R64_SW BOM_R64_NW BOM_ROCI BOM_POCI BOM_EYE BOM_POS_METHOD BOM_PRES_METHOD NADI_LAT NADI_LON NADI_CAT NADI_WIND NADI_PRES WELLINGTON_LAT WELLINGTON_LON WELLINGTON_WIND WELLINGTON_PRES DS824_LAT DS824_LON DS824_STAGE DS824_WIND DS824_PRES TD9636_LAT TD9636_LON TD9636_STAGE TD9636_WIND TD9636_PRES TD9635_LAT TD9635_LON TD9635_WIND TD9635_PRES TD9635_ROCI NEUMANN_LAT NEUMANN_LON NEUMANN_CLASS NEUMANN_WIND NEUMANN_PRES MLC_LAT MLC_LON MLC_CLASS MLC_WIND MLC_PRES USA_GUST BOM_GUST BOM_GUST_PER REUNION_GUST REUNION_GUST_PER USA_SEAHGT USA_SEARAD_NE USA_SEARAD_SE USA_SEARAD_SW USA_SEARAD_NW STORM_SPEED STORM_DIR
2006264N13115 2006 71 WP MM NOT_NAMED 2006-09-21 00:00:00 TS 13.2000 115.000 main 528 518 __O___________ -1 13.2000 115.000 0 19 1004 2 75
2006264N13115 2006 71 WP MM NOT_NAMED 2006-09-21 03:00:00 TS 13.2250 115.103 main 518 494 __P___________ -1 13.2250 115.103 0 19 1004 4 71
2006264N13115 2006 71 WP MM NOT_NAMED 2006-09-21 06:00:00 TS 13.3250 115.375 main 494 494 O_O___________ jtwc_wp WP172006 13.4000 115.900 DB 15 1006 -3 13.3000 115.200 0 19 1004 4 53
2006264N13115 2006 71 WP MM NOT_NAMED 2006-09-21 09:00:00 TS 13.4725 115.444 main 505 495 P_P___________ WP172006 13.5175 115.773 DB 15 1006 -3 13.4500 115.280 0 19 1004 3 11
2006264N13115 2006 71 WP MM NOT_NAMED 2006-09-21 12:00:00 TS 13.6000 115.429 main 511 511 O_O___________ jtwc_wp WP172006 13.6000 115.600 DB 15 1006 -3 13.6000 115.300 0 19 1004 2 320
2006264N13115 2006 71 WP MM NOT_NAMED 2006-09-21 15:00:00 TS 13.6475 115.298 main 520 520 P_P___________ WP172006 13.6225 115.357 DB 15 1006 -3 13.6725 115.238 0 21 1003 3 279
2006264N13115 2006 71 WP MM NOT_NAMED 2006-09-21 18:00:00 TS 13.6500 115.100 main 544 539 O_O___________ jtwc_wp WP172006 13.6000 115.100 DB 15 1006 -3 13.7000 115.100 1 23 1002 4 268
2006264N13115 2006 71 WP MM NOT_NAMED 2006-09-21 21:00:00 TS 13.6362 114.900 main 557 557 P_P___________ WP172006 13.5500 114.892 DB 15 1006 -3 13.7225 114.908 1 23 1002 4 263
2006264N13115 2006 71 WP MM NOT_NAMED 2006-09-22 00:00:00 TS 13.6000 114.700 main 568 547 O_O___________ jtwc_wp WP172006 13.5000 114.700 DB 15 1006 -3 1008 150 45 13.7000 114.700 1 23 1002 4 257
2006264N13115 2006 71 WP MM NOT_NAMED 2006-09-22 03:00:00 TS 13.5500 114.525 main 545 534 P_P___________ WP172006 13.5000 114.508 DB 17 1005 -3 1008 150 45 13.6000 114.542 1 23 1002 4 254
2006264N13115 2006 71 WP MM NOT_NAMED 2006-09-22 06:00:00 TS 13.5000 114.344 main 524 513 O_OO__________ jtwc_wp WP172006 13.5000 114.300 DB 20 1004 -3 1008 150 45 13.5000 114.400 1 23 1002 13.5000 114.300 TD 25 1000 4 260
2006264N13115 2006 71 WP MM NOT_NAMED 2006-09-22 09:00:00 TS 13.4880 114.160 main 513 492 P_PP__________ WP172006 13.4349 114.072 DB 20 1004 -3 1008 150 45 13.4774 114.280 1 23 1002 13.6151 114.095 TD 25 1000 4 273
2006264N13115 2006 71 WP MM NOT_NAMED 2006-09-22 12:00:00 TS 13.5182 113.936 main 481 461 O_OO__________ jtwc_wp WP172006 13.4000 113.800 DB 20 1004 -3 1008 150 45 13.5000 114.100 1 23 1002 13.7000 113.900 TD 25 1000 5 281
2006264N13115 2006 71 WP MM NOT_NAMED 2006-09-22 15:00:00 TS 13.5850 113.656 main 461 429 P_PP__________ WP172006 13.4775 113.465 DB 22 1003 -3 1007 190 45 13.5350 113.787 1 26 1001 13.7424 113.715 TD 27 998 6 284
2006264N13115 2006 71 WP MM NOT_NAMED 2006-09-22 18:00:00 TS 13.6667 113.333 main 421 389 O_OO__________ jtwc_wp WP172006 13.6000 113.100 TD 25 1002 -1 1007 230 45 13.6000 113.400 1 29 1000 13.8000 113.500 TD 30 996 7 285
2006264N13115 2006 71 WP MM NOT_NAMED 2006-09-22 21:00:00 TS 13.7608 112.991 main 392 363 P_PP__________ WP172006 13.6775 112.750 TD 25 1002 -1 1007 230 45 13.6700 112.992 1 29 1000 13.9349 113.230 TD 30 996 7 289
2006264N13115 2006 71 WP MM NOT_NAMED 2006-09-23 00:00:00 TS 13.9000 112.633 main 353 324 O_OO__________ jtwc_wp WP172006 13.8000 112.400 TD 25 1002 -1 1007 230 45 13.8000 112.600 1 29 1000 14.1000 112.900 TD 30 996 8 295
2006264N13115 2006 71 WP MM NOT_NAMED 2006-09-23 03:00:00 TS 14.0942 112.253 main 324 284 P_PP__________ WP172006 14.0275 112.043 TD 27 1001 -1 1007 230 45 14.0275 112.240 1 29 1000 14.2276 112.477 TD 30 996 8 303
2006264N13115 2006 71 WP MM NOT_NAMED 2006-09-23 06:00:00 TS 14.3333 111.933 main 284 275 O_OO__________ jtwc_wp WP172006 14.3000 111.700 TD 30 1000 -1 1007 230 45 14.3000 112.000 1 29 1000 14.4000 112.100 TD 30 996 7 316
2006264N13115 2006 71 WP MM NOT_NAMED 2006-09-23 09:00:00 TS 14.5874 111.758 main 280 267 P_PP__________ WP172006 14.5425 111.377 TD 30 1000 -1 1005 215 45 14.5574 111.970 1 29 1000 14.6623 111.927 TD 30 996 6 331
2006264N13115 2006 71 WP MM NOT_NAMED 2006-09-23 12:00:00 TS 14.8667 111.633 main 269 260 O_OO__________ jtwc_wp WP172006 14.8000 111.100 TD 30 1000 -1 1004 200 45 14.8000 112.000 1 29 1000 15.0000 111.800 TD 30 996 6 333
2006264N13115 2006 71 WP MM NOT_NAMED 2006-09-23 15:00:00 TS 15.1466 111.465 main 261 245 P_PP__________ WP172006 15.0925 110.877 TD 30 1000 -1 1004 200 45 14.9925 111.937 1 29 1000 15.3550 111.580 TD 30 996 7 329
2006264N13115 2006 71 WP MM NOT_NAMED 2006-09-23 18:00:00 TS 15.4667 111.267 main 252 242 O_OO__________ jtwc_wp WP172006 15.4000 110.700 TD 30 1000 -1 1004 200 45 15.2000 111.800 1 29 1000 15.8000 111.300 TD 30 996 8 332
2006264N13115 2006 71 WP MM NOT_NAMED 2006-09-23 21:00:00 TS 15.8840 111.059 main 248 232 P_PP__________ WP172006 15.7224 110.580 TD 30 1000 -1 1004 200 45 15.4924 111.610 1 31 997 16.4374 110.988 TD 30 996 9 329
2006264N13115 2006 71 WP MM NOT_NAMED 2006-09-24 00:00:00 TS 16.2667 110.767 main 237 200 O_OO__________ jtwc_wp WP172006 16.0000 110.400 TD 30 1000 -1 1004 200 45 15.8000 111.300 2 34 995 17.0000 110.600 TD 30 996 9 310
2006264N13115 2006 71 WP MM NOT_NAMED 2006-09-24 03:00:00 TS 16.4802 110.317 main 200 180 P_PP__________ WP172006 16.1651 110.037 TD 30 1000 -1 1005 235 45 16.0428 110.808 2 34 995 17.2326 110.107 TD 30 996 10 292
2006264N13115 2006 71 WP MM NOT_NAMED 2006-09-24 06:00:00 TS 16.6333 109.833 main 173 156 O_OO__________ jtwc_wp WP172006 16.3000 109.600 TD 30 1000 -1 1007 270 45 16.3000 110.300 2 34 995 17.3000 109.600 TD 30 996 9 294
2006264N13115 2006 71 WP MM NOT_NAMED 2006-09-24 09:00:00 TS 16.8431 109.462 main 156 137 P_PP__________ WP172006 16.4999 109.200 TD 30 1000 -1 1007 270 45 16.6647 109.992 2 34 995 17.3648 109.192 TD 30 996 8 298
2006264N13115 2006 71 WP MM NOT_NAMED 2006-09-24 12:00:00 TS 17.0000 109.127 main 139 125 O_OO__________ jtwc_wp WP172006 16.7000 108.800 TD 30 1000 -1 1007 270 45 17.0000 109.700 2 34 995 17.4000 108.800 TD 30 996 7 291
2006264N13115 2006 71 WP MM NOT_NAMED 2006-09-24 15:00:00 TS 17.1130 108.745 main 119 108 P_PP__________ WP172006 16.8724 108.400 TD 27 1001 -1 1006 245 45 17.1875 109.280 2 34 995 17.4453 108.365 TD 30 996 7 287
2006264N13115 2006 71 WP MM NOT_NAMED 2006-09-24 18:00:00 TS 17.2125 108.388 main 108 92 O_OO__________ jtwc_wp WP172006 17.0000 108.000 TD 25 1002 -1 1005 220 45 17.3000 108.800 2 34 995 17.5000 107.900 TD 30 996 6 285
2006264N13115 2006 71 WP MM NOT_NAMED 2006-09-24 21:00:00 TS 17.2787 108.116 main 94 72 P_P___________ WP172006 17.0677 107.600 TD 22 1003 -1 17.3843 108.374 2 31 996 TD 7 285
2006264N13115 2006 71 WP MM NOT_NAMED 2006-09-25 00:00:00 TS 17.4000 107.650 main 72 46 O_O___________ jtwc_wp WP172006 17.1000 107.200 TD 20 1004 -1 17.5000 107.800 1 29 998 12 291
2006264N13115 2006 71 WP MM NOT_NAMED 2006-09-25 03:00:00 TS 17.7191 106.939 main 38 0 __P___________ WP172006 TD -1 17.7191 106.939 1 26 999 18 290
2006264N13115 2006 71 WP MM NOT_NAMED 2006-09-25 06:00:00 TS 18.0000 105.900 main 0 __O___________ -1 18.0000 105.900 1 23 1000 21 286

デジタル台風データ・検索

IBTrACS Databaseについて

本データベースは、米国NOAAが公開する1842年以降の世界の熱帯低気圧のベストトラックデータアーカイブInternational Best Track Archive for Climate Stewardship (IBTrACS)を、ウェブで閲覧しやすい形式に変換したものです。

最終更新日:2021-12-08